createdAt,value
2023-01-22T00:01:21.635Z,44.05
2023-01-22T00:03:52.477Z,47.60
2023-01-22T00:06:25.223Z,66.55
2023-01-22T00:08:55.893Z,54.58
2023-01-22T00:11:23.322Z,54.88
2023-01-22T00:13:53.047Z,72.00
2023-01-22T00:16:21.648Z,59.95
2023-01-22T00:18:49.009Z,50.30
2023-01-22T00:21:18.635Z,42.42
2023-01-22T00:23:48.362Z,49.72
2023-01-22T00:26:17.925Z,49.97
2023-01-22T00:28:49.848Z,47.92
2023-01-22T00:31:17.816Z,46.17
2023-01-22T00:33:48.996Z,45.95
2023-01-22T00:36:21.371Z,38.83
2023-01-22T00:38:49.910Z,37.70
2023-01-22T00:41:22.941Z,37.08
2023-01-22T00:43:52.740Z,34.08
2023-01-22T00:46:22.864Z,38.28
2023-01-22T00:48:53.275Z,39.15
2023-01-22T00:51:22.728Z,43.38
2023-01-22T00:53:57.127Z,43.03
2023-01-22T00:56:29.069Z,46.50
2023-01-22T00:58:58.577Z,38.70
2023-01-22T01:01:25.948Z,42.25
2023-01-22T01:03:53.201Z,40.53
2023-01-22T01:06:23.312Z,41.50
2023-01-22T01:08:50.790Z,45.83
2023-01-22T01:11:23.937Z,46.67
2023-01-22T01:13:52.463Z,42.75
2023-01-22T01:16:21.447Z,38.92
2023-01-22T01:18:51.782Z,39.63
2023-01-22T01:21:19.399Z,47.72
2023-01-22T01:23:46.963Z,40.38
2023-01-22T01:26:17.830Z,45.08
2023-01-22T01:28:45.726Z,48.05
2023-01-22T01:31:16.258Z,38.20
2023-01-22T01:33:46.314Z,43.25
2023-01-22T01:36:40.505Z,40.72
2023-01-22T01:39:10.923Z,41.38
2023-01-22T01:41:38.304Z,38.10
2023-01-22T01:44:20.960Z,40.63
2023-01-22T01:46:50.080Z,35.50
2023-01-22T01:49:29.706Z,38.22
2023-01-22T01:52:00.986Z,41.58
2023-01-22T01:54:31.645Z,37.92
2023-01-22T01:57:14.827Z,42.50
2023-01-22T01:59:45.279Z,36.75
2023-01-22T02:02:15.194Z,41.15
2023-01-22T02:04:42.501Z,40.92
2023-01-22T02:07:09.740Z,37.80
2023-01-22T02:09:37.149Z,44.45
2023-01-22T02:12:04.603Z,41.33
2023-01-22T02:14:34.916Z,41.10
2023-01-22T02:17:12.954Z,46.00
2023-01-22T02:19:44.119Z,38.78
2023-01-22T02:22:30.856Z,38.65
2023-01-22T02:24:58.348Z,33.30
2023-01-22T02:27:26.025Z,40.45
2023-01-22T02:29:53.310Z,38.85
2023-01-22T02:32:20.606Z,36.65
2023-01-22T02:34:47.889Z,41.67
2023-01-22T02:37:15.117Z,39.85
2023-01-22T02:39:44.847Z,37.53
2023-01-22T02:42:14.834Z,38.60
2023-01-22T02:44:42.099Z,37.78
2023-01-22T02:47:09.390Z,42.72
2023-01-22T02:49:36.642Z,42.97
2023-01-22T02:52:04.311Z,40.97
2023-01-22T02:54:31.582Z,38.08
2023-01-22T02:56:58.921Z,43.47
2023-01-22T02:59:26.238Z,41.63
2023-01-22T03:01:57.214Z,34.70
2023-01-22T03:04:24.625Z,40.42
2023-01-22T03:06:54.191Z,37.88
2023-01-22T03:09:21.419Z,39.78
2023-01-22T03:11:48.883Z,34.70
2023-01-22T03:14:36.822Z,44.58
2023-01-22T03:17:25.619Z,32.60
2023-01-22T03:20:11.591Z,36.58
2023-01-22T03:22:38.814Z,38.03
2023-01-22T03:25:06.503Z,34.40
2023-01-22T03:27:36.647Z,40.28
2023-01-22T03:30:04.486Z,39.10
2023-01-22T03:32:33.895Z,42.08
2023-01-22T03:35:01.825Z,60.85
2023-01-22T03:37:29.273Z,44.40
2023-01-22T03:40:00.198Z,51.60
2023-01-22T03:42:27.407Z,50.28
2023-01-22T03:44:54.736Z,51.55
2023-01-22T03:47:24.204Z,40.30
2023-01-22T03:49:51.465Z,46.88
2023-01-22T03:52:18.733Z,50.55
2023-01-22T03:54:45.946Z,39.83
2023-01-22T03:57:15.285Z,44.92
2023-01-22T03:59:44.979Z,48.90
2023-01-22T04:02:12.301Z,48.17
2023-01-22T04:04:39.563Z,42.58
2023-01-22T04:07:08.931Z,49.05
2023-01-22T04:09:38.752Z,46.10
2023-01-22T04:12:08.348Z,50.13
2023-01-22T04:14:38.023Z,46.17
2023-01-22T04:17:05.381Z,33.63
2023-01-22T04:19:32.593Z,34.90
2023-01-22T04:21:59.847Z,36.00
2023-01-22T04:24:27.086Z,36.72
2023-01-22T04:26:56.439Z,38.83
2023-01-22T04:29:23.753Z,36.55
2023-01-22T04:31:53.504Z,40.15
2023-01-22T04:34:23.395Z,37.13
2023-01-22T04:36:50.609Z,34.78
2023-01-22T04:39:17.885Z,36.63
2023-01-22T04:41:47.664Z,33.58
2023-01-22T04:44:17.364Z,36.58
2023-01-22T04:46:49.449Z,39.22
2023-01-22T04:49:21.858Z,29.80
2023-01-22T04:51:49.084Z,27.97
2023-01-22T04:54:18.781Z,36.40
2023-01-22T04:56:46.155Z,39.60
2023-01-22T04:59:15.868Z,37.08
2023-01-22T05:01:45.366Z,30.25
2023-01-22T05:04:15.170Z,35.03
2023-01-22T05:06:42.522Z,34.78
2023-01-22T05:09:14.516Z,33.53
2023-01-22T05:11:41.834Z,32.55
2023-01-22T05:14:11.455Z,30.13
2023-01-22T05:16:47.023Z,30.13
2023-01-22T05:19:16.725Z,30.52
2023-01-22T05:21:44.016Z,37.53
2023-01-22T05:24:11.341Z,37.55
2023-01-22T05:26:38.603Z,32.90
2023-01-22T05:29:08.220Z,31.77
2023-01-22T05:31:35.485Z,33.65
2023-01-22T05:34:03.867Z,29.90
2023-01-22T05:36:31.553Z,27.67
2023-01-22T05:39:01.376Z,37.10
2023-01-22T05:41:28.598Z,27.55
2023-01-22T05:43:55.857Z,33.17
2023-01-22T05:46:25.487Z,25.98
2023-01-22T05:48:52.717Z,33.15
2023-01-22T05:51:20.044Z,33.47
2023-01-22T05:53:47.317Z,29.50
2023-01-22T05:56:14.723Z,32.55
2023-01-22T05:58:42.229Z,28.33
2023-01-22T06:01:09.848Z,28.38
2023-01-22T06:03:37.203Z,32.58
2023-01-22T06:06:13.562Z,28.95
2023-01-22T06:08:41.449Z,27.48
2023-01-22T06:11:15.006Z,31.13
2023-01-22T06:13:42.469Z,28.10
2023-01-22T06:16:12.370Z,27.20
2023-01-22T06:18:41.749Z,26.55
2023-01-22T06:21:09.625Z,26.30
2023-01-22T06:23:36.871Z,29.63
2023-01-22T06:26:05.288Z,25.42
2023-01-22T06:28:32.519Z,28.02
2023-01-22T06:31:05.865Z,30.13
2023-01-22T06:33:37.226Z,26.05
2023-01-22T06:36:05.990Z,25.67
2023-01-22T06:38:33.288Z,24.08
2023-01-22T06:41:02.882Z,32.03
2023-01-22T06:43:30.167Z,26.75
2023-01-22T06:45:57.396Z,25.60
2023-01-22T06:48:26.877Z,27.75
2023-01-22T06:50:58.587Z,26.10
2023-01-22T06:53:26.287Z,22.75
2023-01-22T06:55:53.787Z,21.27
2023-01-22T06:58:21.133Z,21.92
2023-01-22T07:00:50.886Z,22.13
2023-01-22T07:03:18.128Z,22.58
2023-01-22T07:05:45.510Z,25.27
2023-01-22T07:08:17.216Z,25.38
2023-01-22T07:10:44.637Z,25.23
2023-01-22T07:13:15.997Z,25.50
2023-01-22T07:15:43.288Z,24.33
2023-01-22T07:18:14.608Z,26.27
2023-01-22T07:20:42.395Z,24.83
2023-01-22T07:23:10.128Z,21.67
2023-01-22T07:25:37.464Z,24.98
2023-01-22T07:28:06.817Z,21.70
2023-01-22T07:30:34.293Z,19.27
2023-01-22T07:33:02.961Z,20.73
2023-01-22T07:35:33.073Z,21.30
2023-01-22T07:38:00.838Z,23.58
2023-01-22T07:40:28.582Z,25.17
2023-01-22T07:42:56.421Z,22.05
2023-01-22T07:45:24.996Z,23.33
2023-01-22T07:47:55.252Z,23.92
2023-01-22T07:50:27.820Z,22.30
2023-01-22T07:52:55.723Z,21.42
2023-01-22T07:55:25.516Z,22.15
2023-01-22T07:58:04.988Z,22.63
2023-01-22T08:00:34.943Z,21.52
2023-01-22T08:03:06.058Z,24.45
2023-01-22T08:05:33.535Z,22.90
2023-01-22T08:08:00.864Z,21.60
2023-01-22T08:10:28.188Z,22.05
2023-01-22T08:12:57.629Z,23.65
2023-01-22T08:15:24.986Z,19.55
2023-01-22T08:17:52.293Z,20.15
2023-01-22T08:20:24.340Z,22.73
2023-01-22T08:22:58.612Z,18.83
2023-01-22T08:25:27.284Z,19.42
2023-01-22T08:27:55.043Z,23.65
2023-01-22T08:30:22.887Z,18.63
2023-01-22T08:32:52.495Z,19.55
2023-01-22T08:35:19.880Z,21.00
2023-01-22T08:37:47.147Z,19.90
2023-01-22T08:40:14.506Z,20.77
2023-01-22T08:42:41.980Z,19.25
2023-01-22T08:45:09.806Z,22.10
2023-01-22T08:47:37.062Z,18.73
2023-01-22T08:50:04.725Z,18.02
2023-01-22T08:52:31.979Z,19.75
2023-01-22T08:54:59.218Z,20.45
2023-01-22T08:57:26.472Z,19.67
2023-01-22T09:00:01.361Z,20.27
2023-01-22T09:02:31.242Z,20.27
2023-01-22T09:05:00.710Z,19.10
2023-01-22T09:07:27.976Z,19.05
2023-01-22T09:09:55.223Z,17.08
2023-01-22T09:12:22.487Z,17.95
2023-01-22T09:14:52.180Z,16.10
2023-01-22T09:17:19.422Z,18.00
2023-01-22T09:19:49.340Z,18.80
2023-01-22T09:22:16.666Z,18.05
2023-01-22T09:24:46.330Z,15.23
2023-01-22T09:27:13.607Z,24.63
2023-01-22T09:29:41.095Z,16.83
2023-01-22T09:32:08.318Z,22.40
2023-01-22T09:34:38.112Z,21.38
2023-01-22T09:37:07.889Z,24.38
2023-01-22T09:39:40.146Z,20.67
2023-01-22T09:42:17.615Z,21.48
2023-01-22T09:44:47.804Z,17.65
2023-01-22T09:47:47.454Z,20.75
2023-01-22T09:50:27.172Z,18.13
2023-01-22T09:52:57.576Z,16.58
2023-01-22T09:55:30.781Z,20.13
2023-01-22T09:58:05.831Z,20.30
2023-01-22T10:00:39.670Z,16.15
2023-01-22T10:03:39.120Z,15.23
2023-01-22T10:06:22.975Z,14.43
2023-01-22T10:09:08.996Z,15.77
2023-01-22T10:11:41.949Z,14.23
2023-01-22T10:14:15.677Z,16.25
2023-01-22T10:16:43.213Z,16.27
2023-01-22T10:19:27.159Z,18.60
2023-01-22T10:22:13.441Z,19.15
2023-01-22T10:24:42.922Z,18.65
2023-01-22T10:27:14.353Z,19.10
2023-01-22T10:29:48.681Z,16.35
2023-01-22T10:32:30.220Z,19.02
2023-01-22T10:35:06.585Z,19.20
2023-01-22T10:37:46.060Z,21.92
2023-01-22T10:40:27.301Z,18.88
2023-01-22T10:43:11.958Z,21.02
2023-01-22T10:45:51.464Z,18.90
2023-01-22T10:48:19.400Z,19.02
2023-01-22T10:50:59.368Z,17.98
2023-01-22T10:53:36.252Z,16.73
2023-01-22T10:56:12.454Z,19.30
2023-01-22T10:58:45.938Z,16.15
2023-01-22T11:01:33.569Z,19.40
2023-01-22T11:04:13.498Z,23.55
2023-01-22T11:06:45.567Z,22.10
2023-01-22T11:09:31.771Z,19.15
2023-01-22T11:12:23.057Z,20.55
2023-01-22T11:15:03.209Z,19.70
2023-01-22T11:17:38.701Z,23.33
2023-01-22T11:20:37.147Z,22.75
2023-01-22T11:23:09.890Z,25.40
2023-01-22T11:25:53.275Z,25.92
2023-01-22T11:28:20.576Z,20.27
2023-01-22T11:31:14.333Z,57.95
2023-01-22T11:34:12.202Z,23.77
2023-01-22T11:36:55.280Z,32.13
2023-01-22T11:40:03.095Z,19.77
2023-01-22T11:42:36.303Z,21.25
2023-01-22T11:45:11.776Z,20.92
2023-01-22T11:47:57.167Z,18.25
2023-01-22T11:50:24.558Z,23.17
2023-01-22T11:53:00.573Z,22.48
2023-01-22T11:55:59.155Z,17.38
2023-01-22T11:58:53.579Z,17.02
2023-01-22T12:01:25.720Z,20.42
2023-01-22T12:04:10.704Z,16.38
2023-01-22T12:06:37.970Z,17.10
2023-01-22T12:09:18.971Z,14.48
2023-01-22T12:12:29.150Z,16.00
2023-01-22T12:15:15.662Z,19.30
2023-01-22T12:17:49.156Z,18.77
2023-01-22T12:20:46.644Z,17.15
2023-01-22T12:23:27.562Z,15.50
2023-01-22T12:26:15.030Z,17.08
2023-01-22T12:28:46.068Z,18.00
2023-01-22T12:31:45.966Z,15.65
2023-01-22T12:34:26.070Z,17.50
2023-01-22T12:36:55.302Z,16.98
2023-01-22T12:39:30.632Z,13.65
2023-01-22T12:42:06.306Z,18.13
2023-01-22T12:45:03.264Z,15.05
2023-01-22T12:47:40.395Z,17.60
2023-01-22T12:50:20.162Z,16.73
2023-01-22T12:53:05.778Z,15.80
2023-01-22T12:55:41.637Z,17.00
2023-01-22T12:58:31.701Z,16.27
2023-01-22T13:01:03.877Z,18.48
2023-01-22T13:03:34.315Z,18.10
2023-01-22T13:06:29.307Z,14.43
2023-01-22T13:08:58.832Z,15.27
2023-01-22T13:11:32.015Z,17.33
2023-01-22T13:14:22.593Z,15.80
2023-01-22T13:16:57.159Z,17.67
2023-01-22T13:19:38.803Z,16.15
2023-01-22T13:22:08.767Z,16.20
2023-01-22T13:24:36.004Z,17.10
2023-01-22T13:27:03.828Z,17.45
2023-01-22T13:29:37.537Z,19.05
2023-01-22T13:32:20.406Z,19.15
2023-01-22T13:34:50.080Z,14.27
2023-01-22T13:37:22.946Z,18.90
2023-01-22T13:39:52.988Z,17.65
2023-01-22T13:42:24.691Z,21.48
2023-01-22T13:44:58.836Z,16.48
2023-01-22T13:47:28.258Z,19.50
2023-01-22T13:49:58.229Z,15.40
2023-01-22T13:52:29.081Z,18.52
2023-01-22T13:55:01.201Z,17.15
2023-01-22T13:57:30.716Z,22.35
2023-01-22T14:00:02.726Z,17.45
2023-01-22T14:02:35.081Z,17.30
2023-01-22T14:05:02.705Z,12.23
2023-01-22T14:07:33.502Z,19.60
2023-01-22T14:10:18.417Z,16.85
2023-01-22T14:12:45.858Z,28.58
2023-01-22T14:15:16.071Z,21.80
2023-01-22T14:17:43.764Z,20.73
2023-01-22T14:20:14.991Z,21.38
2023-01-22T14:22:44.555Z,17.08
2023-01-22T14:25:11.784Z,21.63
2023-01-22T14:27:47.772Z,19.67
2023-01-22T14:30:20.852Z,23.15
2023-01-22T14:32:48.501Z,18.38
2023-01-22T14:35:21.534Z,15.45
2023-01-22T14:37:49.203Z,18.90
2023-01-22T14:40:17.856Z,20.40
2023-01-22T14:42:46.894Z,23.15
2023-01-22T14:45:18.913Z,25.23
2023-01-22T14:47:51.522Z,19.80
2023-01-22T14:50:22.889Z,17.17
2023-01-22T14:52:55.764Z,20.30
2023-01-22T14:55:23.137Z,19.23
2023-01-22T14:57:52.521Z,17.92
2023-01-22T15:00:20.252Z,22.55
2023-01-22T15:02:49.837Z,19.98
2023-01-22T15:05:21.563Z,22.45
2023-01-22T15:07:53.454Z,19.45
2023-01-22T15:10:21.129Z,19.52
2023-01-22T15:12:51.407Z,20.90
2023-01-22T15:15:26.410Z,21.90
2023-01-22T15:17:54.843Z,20.67
2023-01-22T15:20:24.907Z,24.65
2023-01-22T15:22:52.264Z,26.02
2023-01-22T15:25:19.785Z,21.30
2023-01-22T15:27:49.360Z,22.83
2023-01-22T15:30:16.964Z,18.95
2023-01-22T15:32:44.381Z,23.13
2023-01-22T15:35:11.728Z,20.77
2023-01-22T15:37:41.605Z,21.23
2023-01-22T15:40:10.256Z,21.77
2023-01-22T15:42:37.628Z,24.10
2023-01-22T15:45:08.095Z,18.55
2023-01-22T15:47:35.373Z,22.50
2023-01-22T15:50:05.043Z,27.92
2023-01-22T15:52:32.265Z,17.85
2023-01-22T15:55:01.826Z,21.35
2023-01-22T15:57:31.374Z,24.25
2023-01-22T16:00:00.819Z,22.58
2023-01-22T16:02:30.477Z,58.35
2023-01-22T16:04:57.746Z,61.45
2023-01-22T16:07:25.002Z,41.17
2023-01-22T16:09:54.755Z,49.17
2023-01-22T16:12:24.596Z,30.42
2023-01-22T16:14:51.879Z,33.60
2023-01-22T16:17:21.629Z,32.92
2023-01-22T16:19:51.325Z,25.48
2023-01-22T16:22:20.806Z,25.63
2023-01-22T16:24:52.375Z,26.90
2023-01-22T16:27:21.866Z,27.50
2023-01-22T16:29:49.188Z,20.80
2023-01-22T16:32:16.420Z,23.77
2023-01-22T16:34:46.059Z,21.52
2023-01-22T16:37:13.314Z,22.13
2023-01-22T16:39:40.691Z,20.58
2023-01-22T16:42:07.965Z,24.88
2023-01-22T16:44:35.307Z,22.23
2023-01-22T16:47:02.664Z,22.77
2023-01-22T16:49:32.967Z,23.08
2023-01-22T16:52:20.790Z,23.58
2023-01-22T16:54:49.678Z,20.05
2023-01-22T16:57:20.224Z,26.80
2023-01-22T16:59:50.460Z,28.95
2023-01-22T17:02:19.331Z,31.02
2023-01-22T17:04:46.943Z,27.75
2023-01-22T17:07:32.354Z,20.90
2023-01-22T17:10:00.984Z,26.77
2023-01-22T17:12:28.369Z,21.25
2023-01-22T17:14:55.624Z,22.27
2023-01-22T17:17:25.413Z,21.67
2023-01-22T17:19:54.920Z,21.98
2023-01-22T17:22:24.763Z,24.60
2023-01-22T17:24:52.661Z,21.65
2023-01-22T17:27:21.538Z,20.92
2023-01-22T17:29:48.848Z,24.30
2023-01-22T17:32:16.139Z,25.08
2023-01-22T17:34:43.368Z,24.08
2023-01-22T17:37:15.205Z,26.60
2023-01-22T17:39:50.545Z,21.75
2023-01-22T17:42:21.579Z,24.05
2023-01-22T17:44:51.045Z,23.33
2023-01-22T17:47:20.551Z,30.45
2023-01-22T17:49:49.072Z,22.00
2023-01-22T17:52:17.998Z,26.88
2023-01-22T17:54:45.297Z,24.10
2023-01-22T17:57:12.828Z,20.92
2023-01-22T17:59:40.204Z,25.33
2023-01-22T18:02:07.469Z,25.73
2023-01-22T18:04:37.327Z,22.52
2023-01-22T18:07:05.029Z,20.67
2023-01-22T18:09:32.424Z,21.88
2023-01-22T18:12:00.457Z,22.25
2023-01-22T18:14:30.987Z,22.70
2023-01-22T18:17:00.422Z,22.58
2023-01-22T18:19:28.095Z,21.30
2023-01-22T18:21:57.764Z,20.90
2023-01-22T18:24:27.431Z,25.98
2023-01-22T18:26:58.628Z,26.13
2023-01-22T18:29:26.718Z,32.17
2023-01-22T18:31:54.122Z,24.75
2023-01-22T18:34:26.118Z,23.85
2023-01-22T18:36:55.571Z,21.90
2023-01-22T18:39:25.948Z,20.85
2023-01-22T18:41:53.245Z,19.27
2023-01-22T18:44:21.555Z,27.42
2023-01-22T18:46:51.828Z,22.58
2023-01-22T18:49:22.908Z,23.55
2023-01-22T18:51:50.198Z,22.80
2023-01-22T18:54:20.436Z,21.05
2023-01-22T18:56:50.468Z,20.88
2023-01-22T18:59:17.860Z,19.75
2023-01-22T19:01:51.387Z,19.38
2023-01-22T19:04:21.887Z,22.48
2023-01-22T19:06:54.187Z,21.08
2023-01-22T19:09:21.902Z,25.63
2023-01-22T19:11:51.907Z,32.80
2023-01-22T19:14:21.144Z,29.83
2023-01-22T19:16:52.633Z,22.70
2023-01-22T19:19:20.509Z,24.42
2023-01-22T19:21:52.776Z,23.52
2023-01-22T19:24:26.902Z,29.33
2023-01-22T19:26:55.903Z,22.27
2023-01-22T19:29:26.442Z,22.45
2023-01-22T19:31:57.177Z,23.70
2023-01-22T19:34:25.631Z,23.15
2023-01-22T19:36:55.914Z,25.25
2023-01-22T19:39:26.648Z,23.40
2023-01-22T19:41:55.228Z,22.30
2023-01-22T19:44:25.095Z,22.33
2023-01-22T19:46:52.455Z,21.08
2023-01-22T19:49:20.091Z,22.60
2023-01-22T19:51:51.125Z,23.15
2023-01-22T19:54:19.509Z,22.05
2023-01-22T19:56:48.988Z,22.85
2023-01-22T19:59:19.294Z,22.05
2023-01-22T20:01:50.413Z,21.83
2023-01-22T20:04:25.044Z,25.85
2023-01-22T20:06:57.704Z,22.77
2023-01-22T20:09:25.265Z,25.25
2023-01-22T20:11:54.530Z,23.08
2023-01-22T20:14:23.583Z,22.80
2023-01-22T20:16:51.357Z,25.10
2023-01-22T20:19:18.684Z,26.20
2023-01-22T20:21:45.966Z,23.40
2023-01-22T20:24:13.346Z,25.05
2023-01-22T20:26:40.654Z,25.88
2023-01-22T20:29:12.133Z,24.05
2023-01-22T20:31:42.165Z,24.60
2023-01-22T20:34:09.506Z,25.13
2023-01-22T20:36:36.866Z,25.55
2023-01-22T20:39:06.376Z,27.50
2023-01-22T20:41:34.434Z,23.40
2023-01-22T20:44:02.206Z,24.27
2023-01-22T20:46:29.587Z,29.92
2023-01-22T20:48:58.639Z,27.42
2023-01-22T20:51:29.307Z,26.73
2023-01-22T20:54:00.163Z,26.83
2023-01-22T20:56:33.686Z,27.83
2023-01-22T20:59:06.723Z,30.33
2023-01-22T21:01:34.677Z,24.65
2023-01-22T21:04:03.871Z,27.85
2023-01-22T21:06:35.772Z,29.08
2023-01-22T21:09:06.677Z,25.48
2023-01-22T21:11:38.854Z,26.50
2023-01-22T21:14:12.771Z,27.55
2023-01-22T21:16:44.951Z,31.30
2023-01-22T21:19:18.563Z,29.55
2023-01-22T21:21:46.337Z,29.83
2023-01-22T21:24:13.960Z,26.73
2023-01-22T21:26:47.504Z,26.85
2023-01-22T21:29:20.694Z,32.63
2023-01-22T21:34:25.973Z,30.15
2023-01-22T21:36:58.678Z,30.27
2023-01-22T21:39:29.579Z,32.22
2023-01-22T21:42:16.169Z,31.35
2023-01-22T21:45:03.058Z,27.35
2023-01-22T21:47:30.723Z,33.17
2023-01-22T21:49:58.036Z,32.28
2023-01-22T21:52:27.813Z,30.45
2023-01-22T21:54:55.182Z,31.48
2023-01-22T21:57:24.589Z,28.48
2023-01-22T21:59:54.507Z,31.13
2023-01-22T22:02:22.348Z,31.63
2023-01-22T22:04:49.835Z,31.00
2023-01-22T22:07:18.134Z,30.67
2023-01-22T22:09:45.745Z,30.60
2023-01-22T22:12:13.058Z,24.50
2023-01-22T22:14:42.893Z,27.83
2023-01-22T22:17:10.829Z,28.17
2023-01-22T22:19:38.215Z,26.60
2023-01-22T22:22:07.575Z,31.85
2023-01-22T22:24:34.819Z,28.30
2023-01-22T22:27:06.705Z,26.45
2023-01-22T22:29:34.017Z,29.80
2023-01-22T22:32:01.380Z,27.52
2023-01-22T22:34:31.269Z,27.50
2023-01-22T22:37:00.750Z,27.50
2023-01-22T22:39:32.595Z,29.00
2023-01-22T22:41:59.839Z,29.55
2023-01-22T22:44:27.080Z,26.95
2023-01-22T22:46:56.608Z,25.00
2023-01-22T22:49:26.071Z,27.30
2023-01-22T22:51:53.303Z,27.42
2023-01-22T22:54:20.797Z,26.63
2023-01-22T22:56:49.242Z,22.83
2023-01-22T22:59:18.619Z,23.27
2023-01-22T23:01:45.872Z,22.02
2023-01-22T23:04:13.538Z,22.42
2023-01-22T23:06:44.055Z,25.15
2023-01-22T23:09:13.723Z,23.52
2023-01-22T23:11:41.102Z,26.25
2023-01-22T23:14:12.256Z,22.88
2023-01-22T23:16:44.887Z,28.65
2023-01-22T23:19:15.501Z,22.30
2023-01-22T23:21:45.529Z,23.27
2023-01-22T23:24:14.404Z,28.40
2023-01-22T23:26:43.188Z,27.40
2023-01-22T23:29:12.467Z,25.90
2023-01-22T23:31:41.011Z,25.65
2023-01-22T23:34:12.764Z,25.77
2023-01-22T23:36:43.569Z,23.27
2023-01-22T23:39:12.456Z,22.27
2023-01-22T23:41:39.889Z,28.50
2023-01-22T23:44:07.291Z,28.00
2023-01-22T23:46:36.926Z,21.60
2023-01-22T23:49:04.708Z,27.73
2023-01-22T23:51:32.362Z,23.55
2023-01-22T23:54:02.068Z,26.65
2023-01-22T23:56:32.464Z,25.45
2023-01-22T23:58:59.994Z,22.63
